sensor_id;sensor_type;location;lat;lon;timestamp;temperature;humidity
16384;DHT22;8301;51.440;6.610;2022-09-09T00:00:43;14.80;99.90
16384;DHT22;8301;51.440;6.610;2022-09-09T00:03:14;14.80;99.90
16384;DHT22;8301;51.440;6.610;2022-09-09T00:08:15;14.80;99.90
16384;DHT22;8301;51.440;6.610;2022-09-09T00:10:40;14.80;99.90
16384;DHT22;8301;51.440;6.610;2022-09-09T00:15:57;14.80;99.90
16384;DHT22;8301;51.440;6.610;2022-09-09T00:21:12;14.70;99.90
16384;DHT22;8301;51.440;6.610;2022-09-09T00:23:44;14.70;99.90
16384;DHT22;8301;51.440;6.610;2022-09-09T00:29:00;14.70;99.90
16384;DHT22;8301;51.440;6.610;2022-09-09T00:31:29;14.70;99.90
16384;DHT22;8301;51.440;6.610;2022-09-09T00:36:42;14.70;99.90
16384;DHT22;8301;51.440;6.610;2022-09-09T00:39:13;14.80;99.90
16384;DHT22;8301;51.440;6.610;2022-09-09T00:44:37;14.70;99.90
16384;DHT22;8301;51.440;6.610;2022-09-09T00:49:44;14.80;99.90
16384;DHT22;8301;51.440;6.610;2022-09-09T00:52:16;14.80;99.90
16384;DHT22;8301;51.440;6.610;2022-09-09T00:54:48;14.80;99.90
16384;DHT22;8301;51.440;6.610;2022-09-09T00:57:26;14.70;99.90
16384;DHT22;8301;51.440;6.610;2022-09-09T00:59:59;14.70;99.90
16384;DHT22;8301;51.440;6.610;2022-09-09T01:02:27;14.70;99.90
16384;DHT22;8301;51.440;6.610;2022-09-09T01:05:05;14.70;99.90
16384;DHT22;8301;51.440;6.610;2022-09-09T01:07:28;14.70;99.90
16384;DHT22;8301;51.440;6.610;2022-09-09T01:10:03;14.60;99.90
16384;DHT22;8301;51.440;6.610;2022-09-09T01:12:43;14.60;99.90
16384;DHT22;8301;51.440;6.610;2022-09-09T01:15:21;14.60;99.90
16384;DHT22;8301;51.440;6.610;2022-09-09T01:18:01;14.60;99.90
16384;DHT22;8301;51.440;6.610;2022-09-09T01:28:25;14.50;99.90
16384;DHT22;8301;51.440;6.610;2022-09-09T01:30:53;14.50;99.90
16384;DHT22;8301;51.440;6.610;2022-09-09T01:33:21;14.50;99.90
16384;DHT22;8301;51.440;6.610;2022-09-09T01:35:52;14.50;99.90
16384;DHT22;8301;51.440;6.610;2022-09-09T01:38:23;14.50;99.90
16384;DHT22;8301;51.440;6.610;2022-09-09T01:40:52;14.50;99.90
16384;DHT22;8301;51.440;6.610;2022-09-09T01:43:22;14.50;99.90
16384;DHT22;8301;51.440;6.610;2022-09-09T01:45:51;14.50;99.90
16384;DHT22;8301;51.440;6.610;2022-09-09T01:48:19;14.50;99.90
16384;DHT22;8301;51.440;6.610;2022-09-09T01:50:47;14.50;99.90
16384;DHT22;8301;51.440;6.610;2022-09-09T01:58:40;14.40;99.90
16384;DHT22;8301;51.440;6.610;2022-09-09T02:03:52;14.40;99.90
16384;DHT22;8301;51.440;6.610;2022-09-09T02:06:25;14.40;99.90
16384;DHT22;8301;51.440;6.610;2022-09-09T02:08:57;14.40;99.90
16384;DHT22;8301;51.440;6.610;2022-09-09T02:11:26;14.50;99.90
16384;DHT22;8301;51.440;6.610;2022-09-09T02:14:12;14.50;99.90
16384;DHT22;8301;51.440;6.610;2022-09-09T02:17:25;14.50;99.90
16384;DHT22;8301;51.440;6.610;2022-09-09T02:19:08;14.50;99.90
16384;DHT22;8301;51.440;6.610;2022-09-09T02:21:39;14.50;99.90
16384;DHT22;8301;51.440;6.610;2022-09-09T02:24:07;14.50;99.90
16384;DHT22;8301;51.440;6.610;2022-09-09T02:26:41;14.60;99.90
16384;DHT22;8301;51.440;6.610;2022-09-09T02:29:05;14.60;99.90
16384;DHT22;8301;51.440;6.610;2022-09-09T02:31:33;14.60;99.90
16384;DHT22;8301;51.440;6.610;2022-09-09T02:34:01;14.60;99.90
16384;DHT22;8301;51.440;6.610;2022-09-09T02:36:30;14.60;99.90
16384;DHT22;8301;51.440;6.610;2022-09-09T02:38:59;14.50;99.90
16384;DHT22;8301;51.440;6.610;2022-09-09T02:41:28;14.60;99.90
16384;DHT22;8301;51.440;6.610;2022-09-09T02:44:05;14.60;99.90
16384;DHT22;8301;51.440;6.610;2022-09-09T02:49:09;14.50;99.90
16384;DHT22;8301;51.440;6.610;2022-09-09T02:56:52;14.50;99.90
16384;DHT22;8301;51.440;6.610;2022-09-09T02:59:20;14.60;99.90
16384;DHT22;8301;51.440;6.610;2022-09-09T03:01:47;14.50;99.90
16384;DHT22;8301;51.440;6.610;2022-09-09T03:04:16;14.50;99.90
16384;DHT22;8301;51.440;6.610;2022-09-09T03:06:43;14.60;99.90
16384;DHT22;8301;51.440;6.610;2022-09-09T03:09:10;14.60;99.90
16384;DHT22;8301;51.440;6.610;2022-09-09T03:11:37;14.60;99.90
16384;DHT22;8301;51.440;6.610;2022-09-09T03:14:04;14.60;99.90
16384;DHT22;8301;51.440;6.610;2022-09-09T03:16:31;14.60;99.90
16384;DHT22;8301;51.440;6.610;2022-09-09T03:21:40;14.70;99.90
16384;DHT22;8301;51.440;6.610;2022-09-09T03:24:07;14.70;99.90
16384;DHT22;8301;51.440;6.610;2022-09-09T03:26:35;14.70;99.90
16384;DHT22;8301;51.440;6.610;2022-09-09T03:29:04;14.80;99.90
16384;DHT22;8301;51.440;6.610;2022-09-09T03:31:34;14.80;99.90
16384;DHT22;8301;51.440;6.610;2022-09-09T03:34:02;14.80;99.90
16384;DHT22;8301;51.440;6.610;2022-09-09T03:36:29;14.90;99.90
16384;DHT22;8301;51.440;6.610;2022-09-09T03:38:56;14.90;99.90
16384;DHT22;8301;51.440;6.610;2022-09-09T03:41:22;14.90;99.90
16384;DHT22;8301;51.440;6.610;2022-09-09T03:43:50;14.90;99.90
16384;DHT22;8301;51.440;6.610;2022-09-09T03:46:20;14.90;99.90
16384;DHT22;8301;51.440;6.610;2022-09-09T03:48:48;14.90;99.90
16384;DHT22;8301;51.440;6.610;2022-09-09T03:51:14;14.90;99.90
16384;DHT22;8301;51.440;6.610;2022-09-09T03:53:49;14.90;99.90
16384;DHT22;8301;51.440;6.610;2022-09-09T03:56:16;14.90;99.90
16384;DHT22;8301;51.440;6.610;2022-09-09T03:58:44;14.90;99.90
16384;DHT22;8301;51.440;6.610;2022-09-09T04:01:13;14.90;99.90
16384;DHT22;8301;51.440;6.610;2022-09-09T04:03:42;14.90;99.90
16384;DHT22;8301;51.440;6.610;2022-09-09T04:06:10;15.00;99.90
16384;DHT22;8301;51.440;6.610;2022-09-09T04:08:39;15.00;99.90
16384;DHT22;8301;51.440;6.610;2022-09-09T04:11:07;15.00;99.90
16384;DHT22;8301;51.440;6.610;2022-09-09T04:13:34;15.00;99.90
16384;DHT22;8301;51.440;6.610;2022-09-09T04:16:03;15.00;99.90
16384;DHT22;8301;51.440;6.610;2022-09-09T04:18:30;15.00;99.90
16384;DHT22;8301;51.440;6.610;2022-09-09T04:20:57;15.00;99.90
16384;DHT22;8301;51.440;6.610;2022-09-09T04:23:25;15.00;99.90
16384;DHT22;8301;51.440;6.610;2022-09-09T04:25:54;15.10;99.90
16384;DHT22;8301;51.440;6.610;2022-09-09T04:28:29;15.00;99.90
16384;DHT22;8301;51.440;6.610;2022-09-09T04:31:04;15.10;99.90
16384;DHT22;8301;51.440;6.610;2022-09-09T04:33:32;15.10;99.90
16384;DHT22;8301;51.440;6.610;2022-09-09T04:35:58;15.10;99.90
16384;DHT22;8301;51.440;6.610;2022-09-09T04:38:25;15.10;99.90
16384;DHT22;8301;51.440;6.610;2022-09-09T04:40:52;15.10;99.90
16384;DHT22;8301;51.440;6.610;2022-09-09T04:43:19;15.10;99.90
16384;DHT22;8301;51.440;6.610;2022-09-09T04:45:48;15.10;99.90
16384;DHT22;8301;51.440;6.610;2022-09-09T04:48:18;15.20;99.90
16384;DHT22;8301;51.440;6.610;2022-09-09T04:50:53;15.10;99.90
16384;DHT22;8301;51.440;6.610;2022-09-09T04:53:14;15.20;99.90
16384;DHT22;8301;51.440;6.610;2022-09-09T04:55:40;15.20;99.90
16384;DHT22;8301;51.440;6.610;2022-09-09T04:58:09;15.20;99.90
16384;DHT22;8301;51.440;6.610;2022-09-09T05:00:48;15.20;99.90
16384;DHT22;8301;51.440;6.610;2022-09-09T05:03:23;15.20;99.90
16384;DHT22;8301;51.440;6.610;2022-09-09T05:05:49;15.20;99.90
16384;DHT22;8301;51.440;6.610;2022-09-09T05:08:17;15.20;99.90
16384;DHT22;8301;51.440;6.610;2022-09-09T05:10:47;15.20;99.90
16384;DHT22;8301;51.440;6.610;2022-09-09T05:13:14;15.10;99.90
16384;DHT22;8301;51.440;6.610;2022-09-09T05:15:50;15.20;99.90
16384;DHT22;8301;51.440;6.610;2022-09-09T05:18:13;15.20;99.90
16384;DHT22;8301;51.440;6.610;2022-09-09T05:23:10;15.10;99.90
16384;DHT22;8301;51.440;6.610;2022-09-09T05:25:39;15.10;99.90
16384;DHT22;8301;51.440;6.610;2022-09-09T05:28:09;15.10;99.90
16384;DHT22;8301;51.440;6.610;2022-09-09T05:30:37;15.10;99.90
16384;DHT22;8301;51.440;6.610;2022-09-09T05:33:04;15.10;99.90
16384;DHT22;8301;51.440;6.610;2022-09-09T05:35:38;15.10;99.90
16384;DHT22;8301;51.440;6.610;2022-09-09T05:38:05;15.10;99.90
16384;DHT22;8301;51.440;6.610;2022-09-09T05:43:02;15.00;99.90
16384;DHT22;8301;51.440;6.610;2022-09-09T05:45:29;15.10;99.90
16384;DHT22;8301;51.440;6.610;2022-09-09T05:47:56;15.00;99.90
16384;DHT22;8301;51.440;6.610;2022-09-09T05:50:24;15.00;99.90
16384;DHT22;8301;51.440;6.610;2022-09-09T05:52:54;15.10;99.90
16384;DHT22;8301;51.440;6.610;2022-09-09T05:55:20;15.10;99.90
16384;DHT22;8301;51.440;6.610;2022-09-09T05:57:51;15.10;99.90
16384;DHT22;8301;51.440;6.610;2022-09-09T06:00:15;15.10;99.90
16384;DHT22;8301;51.440;6.610;2022-09-09T06:02:49;15.10;99.90
16384;DHT22;8301;51.440;6.610;2022-09-09T06:05:19;15.20;99.90
16384;DHT22;8301;51.440;6.610;2022-09-09T06:07:57;15.20;99.90
16384;DHT22;8301;51.440;6.610;2022-09-09T06:10:23;15.20;99.90
16384;DHT22;8301;51.440;6.610;2022-09-09T06:12:52;15.30;99.90
16384;DHT22;8301;51.440;6.610;2022-09-09T06:15:19;15.30;99.90
16384;DHT22;8301;51.440;6.610;2022-09-09T06:17:46;15.40;99.90
16384;DHT22;8301;51.440;6.610;2022-09-09T06:20:13;15.40;99.90
16384;DHT22;8301;51.440;6.610;2022-09-09T06:22:41;15.50;99.90
16384;DHT22;8301;51.440;6.610;2022-09-09T06:25:08;15.50;99.90
16384;DHT22;8301;51.440;6.610;2022-09-09T06:27:42;15.70;99.90
16384;DHT22;8301;51.440;6.610;2022-09-09T06:30:09;15.80;99.90
16384;DHT22;8301;51.440;6.610;2022-09-09T06:32:36;15.90;99.90
16384;DHT22;8301;51.440;6.610;2022-09-09T06:35:03;15.90;99.90
16384;DHT22;8301;51.440;6.610;2022-09-09T06:37:30;15.90;99.90
16384;DHT22;8301;51.440;6.610;2022-09-09T06:39:57;16.00;99.90
16384;DHT22;8301;51.440;6.610;2022-09-09T06:42:24;16.00;99.90
16384;DHT22;8301;51.440;6.610;2022-09-09T06:44:51;16.00;99.90
16384;DHT22;8301;51.440;6.610;2022-09-09T06:47:18;16.00;99.90
16384;DHT22;8301;51.440;6.610;2022-09-09T06:49:45;16.00;99.90
16384;DHT22;8301;51.440;6.610;2022-09-09T06:52:11;16.10;99.90
16384;DHT22;8301;51.440;6.610;2022-09-09T06:54:38;16.30;99.90
16384;DHT22;8301;51.440;6.610;2022-09-09T06:57:06;16.40;99.90
16384;DHT22;8301;51.440;6.610;2022-09-09T06:59:33;16.50;99.90
16384;DHT22;8301;51.440;6.610;2022-09-09T07:02:01;16.60;99.90
16384;DHT22;8301;51.440;6.610;2022-09-09T07:04:27;16.70;99.90
16384;DHT22;8301;51.440;6.610;2022-09-09T07:06:54;16.70;99.90
16384;DHT22;8301;51.440;6.610;2022-09-09T07:09:27;16.80;99.90
16384;DHT22;8301;51.440;6.610;2022-09-09T07:11:55;16.90;99.90
16384;DHT22;8301;51.440;6.610;2022-09-09T07:14:30;16.90;99.90
16384;DHT22;8301;51.440;6.610;2022-09-09T07:16:58;16.90;99.90
16384;DHT22;8301;51.440;6.610;2022-09-09T07:19:26;16.90;99.90
16384;DHT22;8301;51.440;6.610;2022-09-09T07:21:53;16.90;99.90
16384;DHT22;8301;51.440;6.610;2022-09-09T07:24:20;16.90;99.90
16384;DHT22;8301;51.440;6.610;2022-09-09T07:26:47;16.90;99.90
16384;DHT22;8301;51.440;6.610;2022-09-09T07:29:14;17.00;99.90
16384;DHT22;8301;51.440;6.610;2022-09-09T07:31:41;17.10;99.90
16384;DHT22;8301;51.440;6.610;2022-09-09T07:34:08;17.10;99.90
16384;DHT22;8301;51.440;6.610;2022-09-09T07:36:36;17.20;99.90
16384;DHT22;8301;51.440;6.610;2022-09-09T07:39:05;17.20;99.90
16384;DHT22;8301;51.440;6.610;2022-09-09T07:41:33;17.30;99.90
16384;DHT22;8301;51.440;6.610;2022-09-09T07:44:08;17.30;99.90
16384;DHT22;8301;51.440;6.610;2022-09-09T07:46:36;17.30;99.90
16384;DHT22;8301;51.440;6.610;2022-09-09T07:49:06;17.40;99.90
16384;DHT22;8301;51.440;6.610;2022-09-09T07:51:36;17.40;99.90
16384;DHT22;8301;51.440;6.610;2022-09-09T07:54:09;17.40;99.90
16384;DHT22;8301;51.440;6.610;2022-09-09T07:56:32;17.30;99.90
16384;DHT22;8301;51.440;6.610;2022-09-09T07:58:59;17.30;99.90
16384;DHT22;8301;51.440;6.610;2022-09-09T08:03:56;17.60;99.90
16384;DHT22;8301;51.440;6.610;2022-09-09T08:06:25;17.70;99.90
16384;DHT22;8301;51.440;6.610;2022-09-09T08:08:55;17.90;99.90
16384;DHT22;8301;51.440;6.610;2022-09-09T08:11:35;17.90;99.90
16384;DHT22;8301;51.440;6.610;2022-09-09T08:14:03;17.90;99.90
16384;DHT22;8301;51.440;6.610;2022-09-09T08:16:31;17.90;99.90
16384;DHT22;8301;51.440;6.610;2022-09-09T08:21:28;17.90;99.90
16384;DHT22;8301;51.440;6.610;2022-09-09T08:23:56;18.00;99.90
16384;DHT22;8301;51.440;6.610;2022-09-09T08:26:24;18.10;99.90
16384;DHT22;8301;51.440;6.610;2022-09-09T08:28:53;18.10;99.90
16384;DHT22;8301;51.440;6.610;2022-09-09T08:31:21;18.30;99.90
16384;DHT22;8301;51.440;6.610;2022-09-09T08:33:48;18.30;99.90
16384;DHT22;8301;51.440;6.610;2022-09-09T08:36:22;18.40;99.90
16384;DHT22;8301;51.440;6.610;2022-09-09T08:38:50;18.50;99.90
16384;DHT22;8301;51.440;6.610;2022-09-09T08:41:31;18.40;99.90
16384;DHT22;8301;51.440;6.610;2022-09-09T08:51:56;18.60;99.90
16384;DHT22;8301;51.440;6.610;2022-09-09T08:54:30;18.50;99.90
16384;DHT22;8301;51.440;6.610;2022-09-09T08:56:59;18.50;99.90
16384;DHT22;8301;51.440;6.610;2022-09-09T08:59:26;18.50;99.90
16384;DHT22;8301;51.440;6.610;2022-09-09T09:02:01;18.60;99.90
16384;DHT22;8301;51.440;6.610;2022-09-09T09:04:29;18.50;99.90
16384;DHT22;8301;51.440;6.610;2022-09-09T09:07:08;18.60;99.90
16384;DHT22;8301;51.440;6.610;2022-09-09T09:12:17;18.50;99.90
16384;DHT22;8301;51.440;6.610;2022-09-09T09:14:50;18.40;99.90
16384;DHT22;8301;51.440;6.610;2022-09-09T09:17:18;18.40;99.90
16384;DHT22;8301;51.440;6.610;2022-09-09T09:19:46;18.40;99.90
16384;DHT22;8301;51.440;6.610;2022-09-09T09:22:15;18.40;99.90
16384;DHT22;8301;51.440;6.610;2022-09-09T09:27:25;18.30;99.90
16384;DHT22;8301;51.440;6.610;2022-09-09T09:29:44;18.20;99.90
16384;DHT22;8301;51.440;6.610;2022-09-09T09:32:14;18.20;99.90
16384;DHT22;8301;51.440;6.610;2022-09-09T09:34:41;18.10;99.90
16384;DHT22;8301;51.440;6.610;2022-09-09T09:37:28;18.20;99.90
16384;DHT22;8301;51.440;6.610;2022-09-09T09:39:50;18.20;99.90
16384;DHT22;8301;51.440;6.610;2022-09-09T09:42:26;18.40;99.90
16384;DHT22;8301;51.440;6.610;2022-09-09T09:44:53;18.50;99.90
16384;DHT22;8301;51.440;6.610;2022-09-09T09:47:20;18.70;99.90
16384;DHT22;8301;51.440;6.610;2022-09-09T09:49:57;18.90;99.90
16384;DHT22;8301;51.440;6.610;2022-09-09T09:52:31;19.00;99.90
16384;DHT22;8301;51.440;6.610;2022-09-09T09:54:59;19.30;99.90
16384;DHT22;8301;51.440;6.610;2022-09-09T09:57:30;19.30;99.90
16384;DHT22;8301;51.440;6.610;2022-09-09T10:02:42;19.20;99.90
16384;DHT22;8301;51.440;6.610;2022-09-09T10:05:22;19.50;99.90
16384;DHT22;8301;51.440;6.610;2022-09-09T10:10:55;19.90;99.90
16384;DHT22;8301;51.440;6.610;2022-09-09T10:13:05;19.90;99.90
16384;DHT22;8301;51.440;6.610;2022-09-09T10:23:13;19.40;99.90
16384;DHT22;8301;51.440;6.610;2022-09-09T10:25:43;19.40;99.90
16384;DHT22;8301;51.440;6.610;2022-09-09T10:28:15;19.30;99.90
16384;DHT22;8301;51.440;6.610;2022-09-09T10:36:00;18.90;99.90
16384;DHT22;8301;51.440;6.610;2022-09-09T10:38:39;18.90;99.90
16384;DHT22;8301;51.440;6.610;2022-09-09T10:46:32;18.90;99.90
16384;DHT22;8301;51.440;6.610;2022-09-09T10:56:55;19.50;99.90
16384;DHT22;8301;51.440;6.610;2022-09-09T10:59:24;19.60;99.90
16384;DHT22;8301;51.440;6.610;2022-09-09T11:01:53;19.60;99.90
16384;DHT22;8301;51.440;6.610;2022-09-09T11:04:40;19.70;99.90
16384;DHT22;8301;51.440;6.610;2022-09-09T11:09:43;19.50;99.90
16384;DHT22;8301;51.440;6.610;2022-09-09T11:12:18;19.30;99.90
16384;DHT22;8301;51.440;6.610;2022-09-09T11:15:12;19.20;99.90
16384;DHT22;8301;51.440;6.610;2022-09-09T11:17:24;19.30;99.90
16384;DHT22;8301;51.440;6.610;2022-09-09T11:19:43;19.40;99.90
16384;DHT22;8301;51.440;6.610;2022-09-09T11:24:47;19.60;99.90
16384;DHT22;8301;51.440;6.610;2022-09-09T11:27:21;19.70;99.90
16384;DHT22;8301;51.440;6.610;2022-09-09T11:30:05;19.80;99.90
16384;DHT22;8301;51.440;6.610;2022-09-09T11:40:57;19.70;99.90
16384;DHT22;8301;51.440;6.610;2022-09-09T11:43:29;19.70;99.90
16384;DHT22;8301;51.440;6.610;2022-09-09T11:45:58;19.80;99.90
16384;DHT22;8301;51.440;6.610;2022-09-09T11:48:35;20.00;99.90
16384;DHT22;8301;51.440;6.610;2022-09-09T11:51:13;20.00;99.90
16384;DHT22;8301;51.440;6.610;2022-09-09T11:53:59;20.10;99.90
16384;DHT22;8301;51.440;6.610;2022-09-09T11:56:28;20.00;99.90
16384;DHT22;8301;51.440;6.610;2022-09-09T11:59:03;19.90;99.90
16384;DHT22;8301;51.440;6.610;2022-09-09T12:01:35;20.10;99.90
16384;DHT22;8301;51.440;6.610;2022-09-09T12:04:07;20.00;99.90
16384;DHT22;8301;51.440;6.610;2022-09-09T12:06:41;20.00;99.90
16384;DHT22;8301;51.440;6.610;2022-09-09T12:09:15;20.10;99.90
16384;DHT22;8301;51.440;6.610;2022-09-09T12:11:38;20.10;99.90
16384;DHT22;8301;51.440;6.610;2022-09-09T12:14:18;20.00;99.90
16384;DHT22;8301;51.440;6.610;2022-09-09T12:16:38;20.10;99.90
16384;DHT22;8301;51.440;6.610;2022-09-09T12:19:12;20.10;99.90
16384;DHT22;8301;51.440;6.610;2022-09-09T12:21:43;20.10;99.90
16384;DHT22;8301;51.440;6.610;2022-09-09T12:24:13;20.00;99.90
16384;DHT22;8301;51.440;6.610;2022-09-09T12:26:41;19.50;99.90
16384;DHT22;8301;51.440;6.610;2022-09-09T12:34:10;19.30;99.90
16384;DHT22;8301;51.440;6.610;2022-09-09T12:36:39;19.10;99.90
16384;DHT22;8301;51.440;6.610;2022-09-09T12:39:10;18.90;99.90
16384;DHT22;8301;51.440;6.610;2022-09-09T12:41:51;18.80;99.90
16384;DHT22;8301;51.440;6.610;2022-09-09T12:44:12;19.00;99.90
16384;DHT22;8301;51.440;6.610;2022-09-09T12:46:45;19.20;99.90
16384;DHT22;8301;51.440;6.610;2022-09-09T12:49:26;19.40;99.90
16384;DHT22;8301;51.440;6.610;2022-09-09T12:51:52;19.30;99.90
16384;DHT22;8301;51.440;6.610;2022-09-09T12:54:19;19.10;99.90
16384;DHT22;8301;51.440;6.610;2022-09-09T12:56:46;19.20;99.90
16384;DHT22;8301;51.440;6.610;2022-09-09T12:59:34;19.30;99.90
16384;DHT22;8301;51.440;6.610;2022-09-09T13:01:59;19.60;99.90
16384;DHT22;8301;51.440;6.610;2022-09-09T13:04:23;20.00;99.90
16384;DHT22;8301;51.440;6.610;2022-09-09T13:06:50;20.10;99.90
16384;DHT22;8301;51.440;6.610;2022-09-09T13:09:18;20.20;99.90
16384;DHT22;8301;51.440;6.610;2022-09-09T13:11:47;20.20;99.90
16384;DHT22;8301;51.440;6.610;2022-09-09T13:14:29;19.90;99.90
16384;DHT22;8301;51.440;6.610;2022-09-09T13:17:01;20.10;99.90
16384;DHT22;8301;51.440;6.610;2022-09-09T13:19:43;20.20;99.90
16384;DHT22;8301;51.440;6.610;2022-09-09T13:22:12;20.40;99.90
16384;DHT22;8301;51.440;6.610;2022-09-09T13:24:39;20.40;99.90
16384;DHT22;8301;51.440;6.610;2022-09-09T13:27:22;20.60;99.90
16384;DHT22;8301;51.440;6.610;2022-09-09T13:29:34;20.90;99.90
16384;DHT22;8301;51.440;6.610;2022-09-09T13:32:04;20.80;99.90
16384;DHT22;8301;51.440;6.610;2022-09-09T13:34:49;20.50;99.90
16384;DHT22;8301;51.440;6.610;2022-09-09T13:37:17;20.50;99.90
16384;DHT22;8301;51.440;6.610;2022-09-09T13:39:38;20.70;99.90
16384;DHT22;8301;51.440;6.610;2022-09-09T13:42:05;20.60;99.90
16384;DHT22;8301;51.440;6.610;2022-09-09T13:44:39;20.70;99.90
16384;DHT22;8301;51.440;6.610;2022-09-09T13:47:28;20.60;99.90
16384;DHT22;8301;51.440;6.610;2022-09-09T13:52:37;21.00;99.90
16384;DHT22;8301;51.440;6.610;2022-09-09T13:55:05;20.70;99.90
16384;DHT22;8301;51.440;6.610;2022-09-09T13:57:34;20.60;99.90
16384;DHT22;8301;51.440;6.610;2022-09-09T14:00:01;20.40;99.90
16384;DHT22;8301;51.440;6.610;2022-09-09T14:02:28;20.20;99.90
16384;DHT22;8301;51.440;6.610;2022-09-09T14:04:56;20.10;99.90
16384;DHT22;8301;51.440;6.610;2022-09-09T14:07:23;20.00;99.90
16384;DHT22;8301;51.440;6.610;2022-09-09T14:09:51;20.10;99.90
16384;DHT22;8301;51.440;6.610;2022-09-09T14:12:18;20.00;99.90
16384;DHT22;8301;51.440;6.610;2022-09-09T14:14:45;19.80;99.90
16384;DHT22;8301;51.440;6.610;2022-09-09T14:17:12;19.80;99.90
16384;DHT22;8301;51.440;6.610;2022-09-09T14:19:40;19.70;99.90
16384;DHT22;8301;51.440;6.610;2022-09-09T14:22:07;19.50;99.90
16384;DHT22;8301;51.440;6.610;2022-09-09T14:24:33;19.30;99.90
16384;DHT22;8301;51.440;6.610;2022-09-09T14:29:33;17.30;99.90
16384;DHT22;8301;51.440;6.610;2022-09-09T14:32:00;16.60;99.90
16384;DHT22;8301;51.440;6.610;2022-09-09T14:34:27;16.30;99.90
16384;DHT22;8301;51.440;6.610;2022-09-09T14:36:54;16.10;99.90
16384;DHT22;8301;51.440;6.610;2022-09-09T14:39:21;16.00;99.90
16384;DHT22;8301;51.440;6.610;2022-09-09T14:41:48;15.90;99.90
16384;DHT22;8301;51.440;6.610;2022-09-09T14:44:18;15.80;99.90
16384;DHT22;8301;51.440;6.610;2022-09-09T14:46:45;15.90;99.90
16384;DHT22;8301;51.440;6.610;2022-09-09T14:49:20;15.60;99.90
16384;DHT22;8301;51.440;6.610;2022-09-09T14:51:47;15.70;99.90
16384;DHT22;8301;51.440;6.610;2022-09-09T14:54:14;15.70;99.90
16384;DHT22;8301;51.440;6.610;2022-09-09T14:56:44;15.80;99.90
16384;DHT22;8301;51.440;6.610;2022-09-09T14:59:11;15.80;99.90
16384;DHT22;8301;51.440;6.610;2022-09-09T15:01:41;15.80;99.90
16384;DHT22;8301;51.440;6.610;2022-09-09T15:04:09;15.90;99.90
16384;DHT22;8301;51.440;6.610;2022-09-09T15:06:36;15.80;99.90
16384;DHT22;8301;51.440;6.610;2022-09-09T15:09:04;15.80;99.90
16384;DHT22;8301;51.440;6.610;2022-09-09T15:11:33;15.80;99.90
16384;DHT22;8301;51.440;6.610;2022-09-09T15:14:01;15.80;99.90
16384;DHT22;8301;51.440;6.610;2022-09-09T15:16:28;15.90;99.90
16384;DHT22;8301;51.440;6.610;2022-09-09T15:18:55;16.00;99.90
16384;DHT22;8301;51.440;6.610;2022-09-09T15:21:23;16.20;99.90
16384;DHT22;8301;51.440;6.610;2022-09-09T15:23:50;16.30;99.90
16384;DHT22;8301;51.440;6.610;2022-09-09T15:26:17;16.40;99.90
16384;DHT22;8301;51.440;6.610;2022-09-09T15:28:44;16.70;99.90
16384;DHT22;8301;51.440;6.610;2022-09-09T15:31:22;17.10;99.90
16384;DHT22;8301;51.440;6.610;2022-09-09T15:33:49;17.40;99.90
16384;DHT22;8301;51.440;6.610;2022-09-09T15:38:45;17.50;99.90
16384;DHT22;8301;51.440;6.610;2022-09-09T15:41:13;17.60;99.90
16384;DHT22;8301;51.440;6.610;2022-09-09T15:43:44;17.60;99.90
16384;DHT22;8301;51.440;6.610;2022-09-09T15:46:21;17.70;99.90
16384;DHT22;8301;51.440;6.610;2022-09-09T15:48:52;17.70;99.90
16384;DHT22;8301;51.440;6.610;2022-09-09T15:51:21;17.90;99.90
16384;DHT22;8301;51.440;6.610;2022-09-09T15:53:48;18.00;99.90
16384;DHT22;8301;51.440;6.610;2022-09-09T15:56:16;17.90;99.90
16384;DHT22;8301;51.440;6.610;2022-09-09T15:58:42;17.90;99.90
16384;DHT22;8301;51.440;6.610;2022-09-09T16:01:09;18.00;99.90
16384;DHT22;8301;51.440;6.610;2022-09-09T16:03:40;18.00;99.90
16384;DHT22;8301;51.440;6.610;2022-09-09T16:06:12;17.90;99.90
16384;DHT22;8301;51.440;6.610;2022-09-09T16:08:40;18.00;99.90
16384;DHT22;8301;51.440;6.610;2022-09-09T16:11:08;18.00;99.90
16384;DHT22;8301;51.440;6.610;2022-09-09T16:13:35;18.00;99.90
16384;DHT22;8301;51.440;6.610;2022-09-09T16:16:03;18.10;99.90
16384;DHT22;8301;51.440;6.610;2022-09-09T16:18:37;18.10;99.90
16384;DHT22;8301;51.440;6.610;2022-09-09T16:21:04;17.90;99.90
16384;DHT22;8301;51.440;6.610;2022-09-09T16:23:31;17.90;99.90
16384;DHT22;8301;51.440;6.610;2022-09-09T16:25:58;17.90;99.90
16384;DHT22;8301;51.440;6.610;2022-09-09T16:28:25;17.80;99.90
16384;DHT22;8301;51.440;6.610;2022-09-09T16:30:52;17.70;99.90
16384;DHT22;8301;51.440;6.610;2022-09-09T16:33:19;17.70;99.90
16384;DHT22;8301;51.440;6.610;2022-09-09T16:35:46;17.60;99.90
16384;DHT22;8301;51.440;6.610;2022-09-09T16:38:16;17.60;99.90
16384;DHT22;8301;51.440;6.610;2022-09-09T16:40:49;17.50;99.90
16384;DHT22;8301;51.440;6.610;2022-09-09T16:43:16;17.60;99.90
16384;DHT22;8301;51.440;6.610;2022-09-09T16:45:43;17.50;99.90
16384;DHT22;8301;51.440;6.610;2022-09-09T16:48:11;17.50;99.90
16384;DHT22;8301;51.440;6.610;2022-09-09T16:50:38;17.50;99.90
16384;DHT22;8301;51.440;6.610;2022-09-09T16:53:05;17.50;99.90
16384;DHT22;8301;51.440;6.610;2022-09-09T16:55:43;17.50;99.90
16384;DHT22;8301;51.440;6.610;2022-09-09T16:58:02;17.40;99.90
16384;DHT22;8301;51.440;6.610;2022-09-09T17:00:30;17.40;99.90
16384;DHT22;8301;51.440;6.610;2022-09-09T17:02:57;17.40;99.90
16384;DHT22;8301;51.440;6.610;2022-09-09T17:05:24;17.40;99.90
16384;DHT22;8301;51.440;6.610;2022-09-09T17:07:51;17.40;99.90
16384;DHT22;8301;51.440;6.610;2022-09-09T17:10:18;17.40;99.90
16384;DHT22;8301;51.440;6.610;2022-09-09T17:12:45;17.50;99.90
16384;DHT22;8301;51.440;6.610;2022-09-09T17:15:12;17.40;99.90
16384;DHT22;8301;51.440;6.610;2022-09-09T17:17:38;17.40;99.90
16384;DHT22;8301;51.440;6.610;2022-09-09T17:20:05;17.30;99.90
16384;DHT22;8301;51.440;6.610;2022-09-09T17:22:32;17.30;99.90
16384;DHT22;8301;51.440;6.610;2022-09-09T17:25:00;17.30;99.90
16384;DHT22;8301;51.440;6.610;2022-09-09T17:27:27;17.40;99.90
16384;DHT22;8301;51.440;6.610;2022-09-09T17:29:55;17.40;99.90
16384;DHT22;8301;51.440;6.610;2022-09-09T17:32:23;17.30;99.90
16384;DHT22;8301;51.440;6.610;2022-09-09T17:34:50;17.30;99.90
16384;DHT22;8301;51.440;6.610;2022-09-09T17:37:18;17.30;99.90
16384;DHT22;8301;51.440;6.610;2022-09-09T17:39:45;17.30;99.90
16384;DHT22;8301;51.440;6.610;2022-09-09T17:42:11;17.20;99.90
16384;DHT22;8301;51.440;6.610;2022-09-09T17:44:38;17.20;99.90
16384;DHT22;8301;51.440;6.610;2022-09-09T17:47:06;17.20;99.90
16384;DHT22;8301;51.440;6.610;2022-09-09T17:49:32;17.20;99.90
16384;DHT22;8301;51.440;6.610;2022-09-09T17:51:59;17.10;99.90
16384;DHT22;8301;51.440;6.610;2022-09-09T17:54:26;17.00;99.90
16384;DHT22;8301;51.440;6.610;2022-09-09T17:56:53;17.00;99.90
16384;DHT22;8301;51.440;6.610;2022-09-09T17:59:20;17.00;99.90
16384;DHT22;8301;51.440;6.610;2022-09-09T18:01:47;16.90;99.90
16384;DHT22;8301;51.440;6.610;2022-09-09T18:04:15;16.90;99.90